sensor_id;sensor_type;location;lat;lon;timestamp;P1;durP1;ratioP1;P2;durP2;ratioP2
21589;SDS011;10957;50.968;6.828;2023-03-12T00:01:43;3.97;;;3.80;;
21589;SDS011;10957;50.968;6.828;2023-03-12T00:06:44;3.63;;;3.53;;
21589;SDS011;10957;50.968;6.828;2023-03-12T00:11:45;3.63;;;3.53;;
21589;SDS011;10957;50.968;6.828;2023-03-12T00:16:47;3.73;;;3.53;;
21589;SDS011;10957;50.968;6.828;2023-03-12T00:21:48;3.90;;;3.70;;
21589;SDS011;10957;50.968;6.828;2023-03-12T00:26:49;3.40;;;3.30;;
21589;SDS011;10957;50.968;6.828;2023-03-12T00:31:50;3.50;;;3.40;;
21589;SDS011;10957;50.968;6.828;2023-03-12T00:36:51;3.70;;;3.60;;
21589;SDS011;10957;50.968;6.828;2023-03-12T00:41:52;3.60;;;3.50;;
21589;SDS011;10957;50.968;6.828;2023-03-12T00:46:54;3.73;;;3.63;;
21589;SDS011;10957;50.968;6.828;2023-03-12T00:51:55;3.70;;;3.60;;
21589;SDS011;10957;50.968;6.828;2023-03-12T00:56:56;3.90;;;3.70;;
21589;SDS011;10957;50.968;6.828;2023-03-12T01:01:57;3.60;;;3.50;;
21589;SDS011;10957;50.968;6.828;2023-03-12T01:06:59;3.93;;;3.73;;
21589;SDS011;10957;50.968;6.828;2023-03-12T01:12:00;4.33;;;4.13;;
21589;SDS011;10957;50.968;6.828;2023-03-12T01:17:01;4.03;;;3.83;;
21589;SDS011;10957;50.968;6.828;2023-03-12T01:22:02;4.30;;;4.10;;
21589;SDS011;10957;50.968;6.828;2023-03-12T01:27:03;3.47;;;3.37;;
21589;SDS011;10957;50.968;6.828;2023-03-12T01:32:05;3.60;;;3.50;;
21589;SDS011;10957;50.968;6.828;2023-03-12T01:37:06;4.10;;;3.90;;
21589;SDS011;10957;50.968;6.828;2023-03-12T01:42:08;3.70;;;3.60;;
21589;SDS011;10957;50.968;6.828;2023-03-12T01:47:09;3.50;;;3.40;;
21589;SDS011;10957;50.968;6.828;2023-03-12T01:52:12;3.60;;;3.50;;
21589;SDS011;10957;50.968;6.828;2023-03-12T01:57:36;3.87;;;3.77;;
21589;SDS011;10957;50.968;6.828;2023-03-12T02:02:43;3.50;;;3.40;;
21589;SDS011;10957;50.968;6.828;2023-03-12T02:07:49;3.70;;;3.60;;
21589;SDS011;10957;50.968;6.828;2023-03-12T02:12:51;3.50;;;3.40;;
21589;SDS011;10957;50.968;6.828;2023-03-12T02:17:52;3.40;;;3.30;;
21589;SDS011;10957;50.968;6.828;2023-03-12T02:28:32;3.50;;;3.40;;
21589;SDS011;10957;50.968;6.828;2023-03-12T02:33:41;3.57;;;3.47;;
21589;SDS011;10957;50.968;6.828;2023-03-12T02:38:44;3.70;;;3.60;;
21589;SDS011;10957;50.968;6.828;2023-03-12T02:49:03;3.60;;;3.50;;
21589;SDS011;10957;50.968;6.828;2023-03-12T02:54:05;3.50;;;3.40;;
21589;SDS011;10957;50.968;6.828;2023-03-12T02:59:07;3.77;;;3.67;;
21589;SDS011;10957;50.968;6.828;2023-03-12T03:04:12;3.50;;;3.40;;
21589;SDS011;10957;50.968;6.828;2023-03-12T03:09:13;3.40;;;3.30;;
21589;SDS011;10957;50.968;6.828;2023-03-12T03:14:15;3.77;;;3.67;;
21589;SDS011;10957;50.968;6.828;2023-03-12T03:19:17;3.50;;;3.40;;
21589;SDS011;10957;50.968;6.828;2023-03-12T03:24:18;3.40;;;3.30;;
21589;SDS011;10957;50.968;6.828;2023-03-12T03:29:19;3.40;;;3.30;;
21589;SDS011;10957;50.968;6.828;2023-03-12T03:34:21;3.30;;;3.20;;
21589;SDS011;10957;50.968;6.828;2023-03-12T03:39:22;3.40;;;3.30;;
21589;SDS011;10957;50.968;6.828;2023-03-12T03:44:25;3.10;;;3.00;;
21589;SDS011;10957;50.968;6.828;2023-03-12T03:49:26;3.07;;;2.97;;
21589;SDS011;10957;50.968;6.828;2023-03-12T03:54:28;3.20;;;3.10;;
21589;SDS011;10957;50.968;6.828;2023-03-12T03:59:31;3.40;;;3.30;;
21589;SDS011;10957;50.968;6.828;2023-03-12T04:04:32;4.03;;;3.83;;
21589;SDS011;10957;50.968;6.828;2023-03-12T04:09:33;3.40;;;3.30;;
21589;SDS011;10957;50.968;6.828;2023-03-12T04:14:37;3.53;;;3.43;;
21589;SDS011;10957;50.968;6.828;2023-03-12T04:19:39;3.30;;;3.20;;
21589;SDS011;10957;50.968;6.828;2023-03-12T04:24:41;3.40;;;3.30;;
21589;SDS011;10957;50.968;6.828;2023-03-12T04:29:42;3.60;;;3.50;;
21589;SDS011;10957;50.968;6.828;2023-03-12T04:34:45;3.60;;;3.50;;
21589;SDS011;10957;50.968;6.828;2023-03-12T04:39:48;3.97;;;3.77;;
21589;SDS011;10957;50.968;6.828;2023-03-12T04:44:50;3.30;;;3.20;;
21589;SDS011;10957;50.968;6.828;2023-03-12T04:49:52;3.50;;;3.40;;
21589;SDS011;10957;50.968;6.828;2023-03-12T04:54:54;4.40;;;4.20;;
21589;SDS011;10957;50.968;6.828;2023-03-12T04:59:55;3.87;;;3.77;;
21589;SDS011;10957;50.968;6.828;2023-03-12T05:04:57;4.20;;;4.00;;
21589;SDS011;10957;50.968;6.828;2023-03-12T05:09:59;4.17;;;3.90;;
21589;SDS011;10957;50.968;6.828;2023-03-12T05:15:01;4.00;;;3.80;;
21589;SDS011;10957;50.968;6.828;2023-03-12T05:20:03;3.70;;;3.60;;
21589;SDS011;10957;50.968;6.828;2023-03-12T05:25:06;3.53;;;3.43;;
21589;SDS011;10957;50.968;6.828;2023-03-12T05:30:08;3.50;;;3.40;;
21589;SDS011;10957;50.968;6.828;2023-03-12T05:35:11;3.50;;;3.40;;
21589;SDS011;10957;50.968;6.828;2023-03-12T05:40:14;3.50;;;3.40;;
21589;SDS011;10957;50.968;6.828;2023-03-12T05:45:16;3.47;;;3.37;;
21589;SDS011;10957;50.968;6.828;2023-03-12T05:50:21;5.37;;;4.97;;
21589;SDS011;10957;50.968;6.828;2023-03-12T05:55:23;3.50;;;3.40;;
21589;SDS011;10957;50.968;6.828;2023-03-12T06:00:25;4.40;;;4.20;;
21589;SDS011;10957;50.968;6.828;2023-03-12T06:05:31;3.30;;;3.20;;
21589;SDS011;10957;50.968;6.828;2023-03-12T06:10:33;3.60;;;3.50;;
21589;SDS011;10957;50.968;6.828;2023-03-12T06:15:36;3.20;;;3.10;;
21589;SDS011;10957;50.968;6.828;2023-03-12T06:20:40;3.10;;;3.00;;
21589;SDS011;10957;50.968;6.828;2023-03-12T06:25:43;3.10;;;3.00;;
21589;SDS011;10957;50.968;6.828;2023-03-12T06:30:45;2.80;;;2.70;;
21589;SDS011;10957;50.968;6.828;2023-03-12T06:35:46;2.80;;;2.70;;
21589;SDS011;10957;50.968;6.828;2023-03-12T06:40:54;2.73;;;2.63;;
21589;SDS011;10957;50.968;6.828;2023-03-12T06:46:00;2.80;;;2.70;;
21589;SDS011;10957;50.968;6.828;2023-03-12T06:51:02;2.90;;;2.80;;
21589;SDS011;10957;50.968;6.828;2023-03-12T06:56:04;2.90;;;2.80;;
21589;SDS011;10957;50.968;6.828;2023-03-12T07:01:06;2.57;;;2.47;;
21589;SDS011;10957;50.968;6.828;2023-03-12T07:06:14;2.90;;;2.80;;
21589;SDS011;10957;50.968;6.828;2023-03-12T07:11:17;3.63;;;3.33;;
21589;SDS011;10957;50.968;6.828;2023-03-12T07:16:18;2.40;;;2.30;;
21589;SDS011;10957;50.968;6.828;2023-03-12T07:21:20;2.40;;;2.30;;
21589;SDS011;10957;50.968;6.828;2023-03-12T07:26:23;2.40;;;2.30;;
21589;SDS011;10957;50.968;6.828;2023-03-12T07:31:24;2.40;;;2.30;;
21589;SDS011;10957;50.968;6.828;2023-03-12T07:36:25;2.40;;;2.30;;
21589;SDS011;10957;50.968;6.828;2023-03-12T07:41:26;2.43;;;2.33;;
21589;SDS011;10957;50.968;6.828;2023-03-12T07:46:28;2.40;;;2.30;;
21589;SDS011;10957;50.968;6.828;2023-03-12T07:51:29;2.40;;;2.30;;
21589;SDS011;10957;50.968;6.828;2023-03-12T07:56:30;2.70;;;2.60;;
21589;SDS011;10957;50.968;6.828;2023-03-12T08:01:32;2.50;;;2.40;;
21589;SDS011;10957;50.968;6.828;2023-03-12T08:06:33;3.10;;;3.00;;
21589;SDS011;10957;50.968;6.828;2023-03-12T08:11:34;2.83;;;2.73;;
21589;SDS011;10957;50.968;6.828;2023-03-12T08:16:36;2.60;;;2.50;;
21589;SDS011;10957;50.968;6.828;2023-03-12T08:21:38;3.27;;;3.17;;
21589;SDS011;10957;50.968;6.828;2023-03-12T08:26:39;2.50;;;2.40;;
21589;SDS011;10957;50.968;6.828;2023-03-12T08:31:40;2.80;;;2.70;;
21589;SDS011;10957;50.968;6.828;2023-03-12T08:36:42;3.37;;;3.17;;
21589;SDS011;10957;50.968;6.828;2023-03-12T08:41:43;3.10;;;3.00;;
21589;SDS011;10957;50.968;6.828;2023-03-12T08:46:45;3.00;;;2.90;;
21589;SDS011;10957;50.968;6.828;2023-03-12T08:51:47;3.00;;;2.90;;
21589;SDS011;10957;50.968;6.828;2023-03-12T08:56:51;3.00;;;2.90;;
21589;SDS011;10957;50.968;6.828;2023-03-12T09:01:53;2.80;;;2.70;;
21589;SDS011;10957;50.968;6.828;2023-03-12T09:06:54;3.10;;;3.00;;
21589;SDS011;10957;50.968;6.828;2023-03-12T09:11:55;3.00;;;2.90;;
21589;SDS011;10957;50.968;6.828;2023-03-12T09:16:57;3.07;;;2.97;;
21589;SDS011;10957;50.968;6.828;2023-03-12T09:21:58;2.70;;;2.60;;
21589;SDS011;10957;50.968;6.828;2023-03-12T09:26:59;3.00;;;2.90;;
21589;SDS011;10957;50.968;6.828;2023-03-12T09:32:01;2.90;;;2.80;;
21589;SDS011;10957;50.968;6.828;2023-03-12T09:37:02;2.88;;;2.78;;
21589;SDS011;10957;50.968;6.828;2023-03-12T09:42:04;2.72;;;2.63;;
21589;SDS011;10957;50.968;6.828;2023-03-12T09:47:24;2.80;;;2.70;;
21589;SDS011;10957;50.968;6.828;2023-03-12T09:52:30;2.80;;;2.70;;
21589;SDS011;10957;50.968;6.828;2023-03-12T09:57:39;3.10;;;3.00;;
21589;SDS011;10957;50.968;6.828;2023-03-12T10:02:50;2.50;;;2.40;;
21589;SDS011;10957;50.968;6.828;2023-03-12T10:08:09;2.70;;;2.60;;
21589;SDS011;10957;50.968;6.828;2023-03-12T10:18:31;2.55;;;2.45;;
21589;SDS011;10957;50.968;6.828;2023-03-12T10:30:12;2.45;;;2.35;;
21589;SDS011;10957;50.968;6.828;2023-03-12T10:35:36;2.45;;;2.35;;
21589;SDS011;10957;50.968;6.828;2023-03-12T10:40:40;2.50;;;2.40;;
21589;SDS011;10957;50.968;6.828;2023-03-12T10:45:43;2.65;;;2.55;;
21589;SDS011;10957;50.968;6.828;2023-03-12T10:51:02;2.80;;;2.70;;
21589;SDS011;10957;50.968;6.828;2023-03-12T11:06:24;2.30;;;2.20;;
21589;SDS011;10957;50.968;6.828;2023-03-12T11:11:32;1.88;;;1.80;;
21589;SDS011;10957;50.968;6.828;2023-03-12T11:16:35;1.90;;;1.80;;
21589;SDS011;10957;50.968;6.828;2023-03-12T11:21:36;1.40;;;1.40;;
21589;SDS011;10957;50.968;6.828;2023-03-12T11:32:22;1.92;;;1.83;;
21589;SDS011;10957;50.968;6.828;2023-03-12T11:37:30;1.88;;;1.77;;
21589;SDS011;10957;50.968;6.828;2023-03-12T11:43:02;1.65;;;1.65;;
21589;SDS011;10957;50.968;6.828;2023-03-12T11:59:08;1.40;;;1.40;;
21589;SDS011;10957;50.968;6.828;2023-03-12T12:04:49;2.47;;;2.28;;
21589;SDS011;10957;50.968;6.828;2023-03-12T12:15:06;1.50;;;1.50;;
21589;SDS011;10957;50.968;6.828;2023-03-12T12:20:36;1.83;;;1.73;;
21589;SDS011;10957;50.968;6.828;2023-03-12T12:25:51;1.50;;;1.50;;
21589;SDS011;10957;50.968;6.828;2023-03-12T12:31:18;1.90;;;1.80;;
21589;SDS011;10957;50.968;6.828;2023-03-12T12:36:37;1.40;;;1.40;;
21589;SDS011;10957;50.968;6.828;2023-03-12T12:42:02;1.55;;;1.52;;
21589;SDS011;10957;50.968;6.828;2023-03-12T12:47:11;1.60;;;1.60;;
21589;SDS011;10957;50.968;6.828;2023-03-12T12:52:18;6.45;;;1.80;;
21589;SDS011;10957;50.968;6.828;2023-03-12T13:02:30;1.50;;;1.50;;
21589;SDS011;10957;50.968;6.828;2023-03-12T13:07:33;8.23;;;1.92;;
21589;SDS011;10957;50.968;6.828;2023-03-12T13:12:40;2.47;;;2.38;;
21589;SDS011;10957;50.968;6.828;2023-03-12T13:33:38;2.55;;;2.45;;
21589;SDS011;10957;50.968;6.828;2023-03-12T13:38:58;2.72;;;2.63;;
21589;SDS011;10957;50.968;6.828;2023-03-12T13:49:40;2.58;;;2.47;;
21589;SDS011;10957;50.968;6.828;2023-03-12T13:54:43;2.80;;;2.70;;
21589;SDS011;10957;50.968;6.828;2023-03-12T13:59:47;2.88;;;2.78;;
21589;SDS011;10957;50.968;6.828;2023-03-12T14:04:51;2.70;;;2.60;;
21589;SDS011;10957;50.968;6.828;2023-03-12T14:10:07;3.35;;;3.17;;
21589;SDS011;10957;50.968;6.828;2023-03-12T14:20:50;2.90;;;2.80;;
21589;SDS011;10957;50.968;6.828;2023-03-12T14:25:58;2.90;;;2.80;;
21589;SDS011;10957;50.968;6.828;2023-03-12T14:31:12;3.35;;;3.25;;
21589;SDS011;10957;50.968;6.828;2023-03-12T14:36:15;3.50;;;3.40;;
21589;SDS011;10957;50.968;6.828;2023-03-12T14:41:21;3.40;;;3.25;;
21589;SDS011;10957;50.968;6.828;2023-03-12T14:46:29;3.60;;;3.50;;
21589;SDS011;10957;50.968;6.828;2023-03-12T14:51:30;5.43;;;4.43;;
21589;SDS011;10957;50.968;6.828;2023-03-12T14:56:36;3.50;;;3.40;;
21589;SDS011;10957;50.968;6.828;2023-03-12T15:01:37;7.50;;;4.28;;
21589;SDS011;10957;50.968;6.828;2023-03-12T15:06:50;3.80;;;3.70;;
21589;SDS011;10957;50.968;6.828;2023-03-12T15:12:03;4.20;;;4.00;;
21589;SDS011;10957;50.968;6.828;2023-03-12T15:17:18;4.15;;;3.95;;
21589;SDS011;10957;50.968;6.828;2023-03-12T15:22:20;7.05;;;5.22;;
21589;SDS011;10957;50.968;6.828;2023-03-12T15:32:28;4.25;;;4.05;;
21589;SDS011;10957;50.968;6.828;2023-03-12T15:37:32;4.20;;;4.00;;
21589;SDS011;10957;50.968;6.828;2023-03-12T15:42:40;4.40;;;4.20;;
21589;SDS011;10957;50.968;6.828;2023-03-12T15:47:44;4.40;;;4.20;;
21589;SDS011;10957;50.968;6.828;2023-03-12T15:53:00;4.63;;;4.43;;
21589;SDS011;10957;50.968;6.828;2023-03-12T16:03:33;5.00;;;4.80;;
21589;SDS011;10957;50.968;6.828;2023-03-12T16:08:51;4.63;;;4.43;;
21589;SDS011;10957;50.968;6.828;2023-03-12T16:13:57;5.55;;;5.25;;
21589;SDS011;10957;50.968;6.828;2023-03-12T16:19:14;5.32;;;5.10;;
21589;SDS011;10957;50.968;6.828;2023-03-12T16:24:16;4.47;;;4.28;;
21589;SDS011;10957;50.968;6.828;2023-03-12T16:29:18;4.68;;;4.47;;
21589;SDS011;10957;50.968;6.828;2023-03-12T16:34:20;6.28;;;5.75;;
21589;SDS011;10957;50.968;6.828;2023-03-12T16:39:22;4.70;;;4.50;;
21589;SDS011;10957;50.968;6.828;2023-03-12T16:44:23;5.63;;;5.32;;
21589;SDS011;10957;50.968;6.828;2023-03-12T16:49:27;5.10;;;4.90;;
21589;SDS011;10957;50.968;6.828;2023-03-12T16:54:28;5.63;;;5.22;;
21589;SDS011;10957;50.968;6.828;2023-03-12T16:59:30;5.40;;;5.20;;
21589;SDS011;10957;50.968;6.828;2023-03-12T17:04:32;5.07;;;4.88;;
21589;SDS011;10957;50.968;6.828;2023-03-12T17:09:34;5.10;;;4.90;;
21589;SDS011;10957;50.968;6.828;2023-03-12T17:14:35;5.10;;;4.90;;
21589;SDS011;10957;50.968;6.828;2023-03-12T17:19:36;6.43;;;6.10;;
21589;SDS011;10957;50.968;6.828;2023-03-12T17:24:37;5.50;;;5.30;;
21589;SDS011;10957;50.968;6.828;2023-03-12T17:29:39;5.30;;;5.10;;
21589;SDS011;10957;50.968;6.828;2023-03-12T17:34:40;5.10;;;4.90;;
21589;SDS011;10957;50.968;6.828;2023-03-12T17:39:42;7.50;;;6.75;;
21589;SDS011;10957;50.968;6.828;2023-03-12T17:44:43;6.95;;;6.55;;
21589;SDS011;10957;50.968;6.828;2023-03-12T17:49:44;5.20;;;5.00;;
21589;SDS011;10957;50.968;6.828;2023-03-12T17:54:45;6.72;;;6.32;;
21589;SDS011;10957;50.968;6.828;2023-03-12T17:59:46;5.55;;;5.25;;
21589;SDS011;10957;50.968;6.828;2023-03-12T18:04:48;4.53;;;4.32;;
21589;SDS011;10957;50.968;6.828;2023-03-12T18:09:49;5.82;;;5.55;;
21589;SDS011;10957;50.968;6.828;2023-03-12T18:14:50;5.32;;;5.13;;
21589;SDS011;10957;50.968;6.828;2023-03-12T18:19:51;5.07;;;4.88;;
21589;SDS011;10957;50.968;6.828;2023-03-12T18:24:52;5.28;;;5.07;;
21589;SDS011;10957;50.968;6.828;2023-03-12T18:29:55;4.80;;;4.60;;
21589;SDS011;10957;50.968;6.828;2023-03-12T18:34:56;5.00;;;4.80;;
21589;SDS011;10957;50.968;6.828;2023-03-12T18:39:57;4.72;;;4.53;;
21589;SDS011;10957;50.968;6.828;2023-03-12T18:44:59;4.70;;;4.50;;
21589;SDS011;10957;50.968;6.828;2023-03-12T18:50:00;5.55;;;5.25;;
21589;SDS011;10957;50.968;6.828;2023-03-12T18:55:01;5.63;;;5.28;;
21589;SDS011;10957;50.968;6.828;2023-03-12T19:00:04;5.47;;;5.20;;
21589;SDS011;10957;50.968;6.828;2023-03-12T19:05:06;4.70;;;4.50;;
21589;SDS011;10957;50.968;6.828;2023-03-12T19:10:08;4.80;;;4.60;;
21589;SDS011;10957;50.968;6.828;2023-03-12T19:15:10;4.72;;;4.53;;
21589;SDS011;10957;50.968;6.828;2023-03-12T19:20:11;4.85;;;4.65;;
21589;SDS011;10957;50.968;6.828;2023-03-12T19:25:12;4.90;;;4.70;;
21589;SDS011;10957;50.968;6.828;2023-03-12T19:30:15;6.40;;;5.80;;
21589;SDS011;10957;50.968;6.828;2023-03-12T19:35:16;5.05;;;4.75;;
21589;SDS011;10957;50.968;6.828;2023-03-12T19:40:18;4.70;;;4.50;;
21589;SDS011;10957;50.968;6.828;2023-03-12T19:45:19;5.45;;;5.22;;
21589;SDS011;10957;50.968;6.828;2023-03-12T19:50:20;4.95;;;4.75;;
21589;SDS011;10957;50.968;6.828;2023-03-12T19:55:23;5.00;;;4.80;;
21589;SDS011;10957;50.968;6.828;2023-03-12T20:00:24;5.20;;;5.00;;
21589;SDS011;10957;50.968;6.828;2023-03-12T20:05:25;4.70;;;4.47;;
21589;SDS011;10957;50.968;6.828;2023-03-12T20:10:26;5.15;;;4.95;;
21589;SDS011;10957;50.968;6.828;2023-03-12T20:15:29;4.95;;;4.75;;
21589;SDS011;10957;50.968;6.828;2023-03-12T20:20:30;5.00;;;4.78;;
21589;SDS011;10957;50.968;6.828;2023-03-12T20:25:31;4.50;;;4.30;;
21589;SDS011;10957;50.968;6.828;2023-03-12T20:30:36;5.22;;;4.93;;
21589;SDS011;10957;50.968;6.828;2023-03-12T20:35:40;4.60;;;4.40;;
21589;SDS011;10957;50.968;6.828;2023-03-12T20:40:43;4.35;;;4.15;;
21589;SDS011;10957;50.968;6.828;2023-03-12T20:45:48;4.55;;;4.35;;
21589;SDS011;10957;50.968;6.828;2023-03-12T20:50:54;5.05;;;4.85;;
21589;SDS011;10957;50.968;6.828;2023-03-12T20:55:55;4.78;;;4.57;;
21589;SDS011;10957;50.968;6.828;2023-03-12T21:01:01;4.90;;;4.70;;
21589;SDS011;10957;50.968;6.828;2023-03-12T21:06:04;3.85;;;3.72;;
21589;SDS011;10957;50.968;6.828;2023-03-12T21:11:05;4.32;;;4.13;;
21589;SDS011;10957;50.968;6.828;2023-03-12T21:16:08;3.80;;;3.70;;
21589;SDS011;10957;50.968;6.828;2023-03-12T21:21:12;4.25;;;3.95;;
21589;SDS011;10957;50.968;6.828;2023-03-12T21:26:13;5.50;;;4.90;;
21589;SDS011;10957;50.968;6.828;2023-03-12T21:31:19;3.75;;;3.60;;
21589;SDS011;10957;50.968;6.828;2023-03-12T21:36:20;3.50;;;3.40;;
21589;SDS011;10957;50.968;6.828;2023-03-12T21:41:22;4.05;;;3.85;;
21589;SDS011;10957;50.968;6.828;2023-03-12T21:46:23;3.60;;;3.50;;
21589;SDS011;10957;50.968;6.828;2023-03-12T21:51:26;4.53;;;4.13;;
21589;SDS011;10957;50.968;6.828;2023-03-12T21:56:27;3.47;;;3.38;;
21589;SDS011;10957;50.968;6.828;2023-03-12T22:01:29;4.85;;;4.65;;
21589;SDS011;10957;50.968;6.828;2023-03-12T22:06:31;3.88;;;3.72;;
21589;SDS011;10957;50.968;6.828;2023-03-12T22:11:32;4.57;;;4.30;;
21589;SDS011;10957;50.968;6.828;2023-03-12T22:16:33;3.55;;;3.45;;
21589;SDS011;10957;50.968;6.828;2023-03-12T22:21:35;4.32;;;4.10;;
21589;SDS011;10957;50.968;6.828;2023-03-12T22:26:36;3.60;;;3.50;;
21589;SDS011;10957;50.968;6.828;2023-03-12T22:31:37;4.07;;;3.88;;
21589;SDS011;10957;50.968;6.828;2023-03-12T22:36:38;4.00;;;3.80;;
21589;SDS011;10957;50.968;6.828;2023-03-12T22:41:40;3.70;;;3.60;;
21589;SDS011;10957;50.968;6.828;2023-03-12T22:46:41;3.70;;;3.60;;
21589;SDS011;10957;50.968;6.828;2023-03-12T22:51:42;3.55;;;3.45;;
21589;SDS011;10957;50.968;6.828;2023-03-12T22:56:43;3.70;;;3.60;;
21589;SDS011;10957;50.968;6.828;2023-03-12T23:01:44;4.18;;;3.88;;
21589;SDS011;10957;50.968;6.828;2023-03-12T23:06:46;4.22;;;4.03;;
21589;SDS011;10957;50.968;6.828;2023-03-12T23:11:47;3.28;;;3.17;;
21589;SDS011;10957;50.968;6.828;2023-03-12T23:16:48;3.60;;;3.50;;
21589;SDS011;10957;50.968;6.828;2023-03-12T23:21:49;3.47;;;3.38;;
21589;SDS011;10957;50.968;6.828;2023-03-12T23:26:50;3.70;;;3.60;;
21589;SDS011;10957;50.968;6.828;2023-03-12T23:31:54;3.40;;;3.30;;
21589;SDS011;10957;50.968;6.828;2023-03-12T23:36:55;4.25;;;4.05;;
21589;SDS011;10957;50.968;6.828;2023-03-12T23:41:56;2.90;;;2.80;;
21589;SDS011;10957;50.968;6.828;2023-03-12T23:46:58;2.90;;;2.80;;
21589;SDS011;10957;50.968;6.828;2023-03-12T23:51:59;3.03;;;2.92;;
21589;SDS011;10957;50.968;6.828;2023-03-12T23:57:00;3.25;;;3.10;;
